Terminal Aerodrome Forecast
Issued by NWS Northern Indiana

Home | Current Version | Previous Version | Graphics & Text | Print | Product List | Glossary On
Versions: 1 2 3 4 5 6 7 8 9 10 11 12 13 14 15 16 17
702
FTUS43 KIWX 270521
TAFFWA
TAF
KFWA 270521Z 2706/2806 22008KT P6SM SCT060
     FM271800 19008KT P6SM BKN050
     FM280300 15005KT P6SM BKN050=

USA.gov is the U.S. government's official web portal to all federal, state and local government web resources and services.